Greendale, Missouri
Current Conditions -  °F | °C
As of 8:51 AM on Thursday 23 Oct 2014 (Local Time) from KSTL Reporting Station
Broken Clouds Broken Clouds  
Wind Chill: 52°   Ceiling: 25000
Heat Index: 52°   Visibility: 10mi
Dew Point: 41°   Wind: 6mph
Humidity: 66%   Direction: 190°S
Pressure: 30.21"   Gusts: NA
Location:  38.6807°N, 90.3068°W
Report Text: KSTL 231351Z 19005KT 10SM FEW150 SCT200 BKN250 11/05 A3021 RMK AO2 SLP232 VIRGA W T01110050
Loading
Personal Weather Stations






























Interactive Weather Map
Tropical Storm Tracking
New forecast layout! Learn more

10-Day Weather Forecast

Advertisements
Track Severe Weather on mobile